createdAt,value
2022-09-07T00:00:58.033Z,100749.27
2022-09-07T00:04:25.210Z,100748.66
2022-09-07T00:07:52.094Z,100746.93
2022-09-07T00:11:20.482Z,100754.27
2022-09-07T00:14:47.217Z,100755.48
2022-09-07T00:18:15.208Z,100763.56
2022-09-07T00:21:42.262Z,100767.17
2022-09-07T00:25:09.459Z,100763.50
2022-09-07T00:28:35.025Z,100760.48
2022-09-07T00:32:02.411Z,100761.92
2022-09-07T00:35:22.979Z,100764.28
2022-09-07T00:38:38.716Z,100762.94
2022-09-07T00:42:06.152Z,100757.15
2022-09-07T00:45:47.952Z,100757.27
2022-09-07T00:49:16.860Z,100750.52
2022-09-07T00:52:38.561Z,100757.98
2022-09-07T00:55:46.410Z,100755.77
2022-09-07T00:59:13.028Z,100756.80
2022-09-07T01:02:40.913Z,100760.30
2022-09-07T01:06:10.517Z,100760.23
2022-09-07T01:09:31.855Z,100760.16
2022-09-07T01:12:58.322Z,100762.27
2022-09-07T01:16:36.730Z,100759.23
2022-09-07T01:20:06.025Z,100758.77
2022-09-07T01:23:35.733Z,100755.86
2022-09-07T01:27:01.302Z,100754.14
2022-09-07T01:30:31.050Z,100753.44
2022-09-07T01:33:53.591Z,100748.52
2022-09-07T01:37:32.569Z,100750.07
2022-09-07T01:41:02.853Z,100751.02
2022-09-07T01:44:46.208Z,100751.40
2022-09-07T01:48:29.013Z,100752.40
2022-09-07T01:51:56.082Z,100753.89
2022-09-07T01:55:25.923Z,100755.27
2022-09-07T01:58:53.041Z,100756.52
2022-09-07T02:02:23.134Z,100755.42
2022-09-07T02:05:49.735Z,100757.82
2022-09-07T02:09:24.030Z,100762.70
2022-09-07T02:12:31.048Z,100765.31
2022-09-07T02:15:58.792Z,100765.75
2022-09-07T02:19:15.335Z,100767.88
2022-09-07T02:22:40.925Z,100771.79
2022-09-07T02:26:03.508Z,100778.36
2022-09-07T02:29:34.035Z,100780.77
2022-09-07T02:33:03.580Z,100789.73
2022-09-07T02:36:21.735Z,100799.48
2022-09-07T02:39:48.488Z,100799.77
2022-09-07T02:43:16.212Z,100806.81
2022-09-07T02:46:36.102Z,100810.32
2022-09-07T02:50:20.639Z,100818.50
2022-09-07T02:53:57.618Z,100819.04
2022-09-07T02:57:37.139Z,100818.86
2022-09-07T03:01:16.293Z,100814.30
2022-09-07T03:05:00.212Z,100818.77
2022-09-07T03:08:26.692Z,100816.09
2022-09-07T03:11:55.524Z,100817.52
2022-09-07T03:15:22.594Z,100815.70
2022-09-07T03:18:50.253Z,100812.20
2022-09-07T03:22:17.402Z,100819.02
2022-09-07T03:25:44.445Z,100822.19
2022-09-07T03:29:11.100Z,100826.48
2022-09-07T03:32:38.752Z,100832.14
2022-09-07T03:36:05.718Z,100830.71
2022-09-07T03:39:32.980Z,100835.21
2022-09-07T03:42:59.614Z,100836.77
2022-09-07T03:46:27.146Z,100841.58
2022-09-07T03:49:57.925Z,100848.10
2022-09-07T03:53:25.471Z,100851.39
2022-09-07T03:57:01.434Z,100857.21
2022-09-07T04:00:28.692Z,100867.14
2022-09-07T04:03:59.966Z,100868.98
2022-09-07T04:07:03.343Z,100872.86
2022-09-07T04:10:30.841Z,100881.59
2022-09-07T04:13:47.469Z,100888.60
2022-09-07T04:17:14.491Z,100888.21
2022-09-07T04:20:41.057Z,100888.20
2022-09-07T04:24:12.188Z,100894.90
2022-09-07T04:27:39.373Z,100900.50
2022-09-07T04:31:07.232Z,100906.11
2022-09-07T04:34:35.931Z,100904.59
2022-09-07T04:37:35.807Z,100910.01
2022-09-07T04:40:55.901Z,100909.05
2022-09-07T04:44:23.181Z,100912.21
2022-09-07T04:47:32.448Z,100913.73
2022-09-07T04:50:52.243Z,100915.20
2022-09-07T04:54:19.366Z,100915.22
2022-09-07T04:57:39.562Z,100917.77
2022-09-07T05:01:06.498Z,100920.50
2022-09-07T05:04:28.354Z,100921.48
2022-09-07T05:07:50.752Z,100918.73
2022-09-07T05:11:17.427Z,100920.85
2022-09-07T05:14:44.313Z,100921.52
2022-09-07T05:18:10.929Z,100927.48
2022-09-07T05:21:37.704Z,100922.84
2022-09-07T05:25:04.458Z,100932.60
2022-09-07T05:28:30.195Z,100935.59
2022-09-07T05:31:50.235Z,100937.09
2022-09-07T05:35:17.305Z,100937.77
2022-09-07T05:38:43.802Z,100934.17
2022-09-07T05:42:16.427Z,100932.64
2022-09-07T05:45:25.155Z,100935.02
2022-09-07T05:48:32.110Z,100938.23
2022-09-07T05:51:58.782Z,100945.36
2022-09-07T05:55:32.199Z,100943.79
2022-09-07T05:58:59.313Z,100949.05
2022-09-07T06:02:25.874Z,100951.16
2022-09-07T06:05:51.670Z,100952.11
2022-09-07T06:09:16.527Z,100950.03
2022-09-07T06:12:37.434Z,100955.88
2022-09-07T06:16:03.953Z,100957.58
2022-09-07T06:19:33.675Z,100968.25
2022-09-07T06:23:00.147Z,100966.48
2022-09-07T06:26:29.939Z,100964.85
2022-09-07T06:29:57.097Z,100963.23
2022-09-07T06:33:25.858Z,100966.67
2022-09-07T06:37:01.616Z,100970.49
2022-09-07T06:40:28.321Z,100969.96
2022-09-07T06:43:47.672Z,100969.96
2022-09-07T06:47:14.074Z,100971.08
2022-09-07T06:50:40.850Z,100966.81
2022-09-07T06:57:54.611Z,100968.29
2022-09-07T07:01:25.704Z,100977.88
2022-09-07T07:04:44.444Z,100976.00
2022-09-07T07:08:14.680Z,100974.85
2022-09-07T07:11:44.864Z,100973.70
2022-09-07T07:15:12.220Z,100976.70
2022-09-07T07:18:32.238Z,100984.60
2022-09-07T07:22:14.436Z,100993.33
2022-09-07T07:25:47.018Z,100993.20
2022-09-07T07:29:07.240Z,101000.67
2022-09-07T07:32:33.732Z,101008.21
2022-09-07T07:36:00.500Z,101003.38
2022-09-07T07:43:05.702Z,101001.54
2022-09-07T07:46:34.252Z,101014.34
2022-09-07T07:53:42.924Z,101014.00
2022-09-07T07:56:59.835Z,101013.67
2022-09-07T08:00:37.675Z,101017.67
2022-09-07T08:03:58.639Z,101029.46
2022-09-07T08:07:26.111Z,101025.44
2022-09-07T08:10:52.502Z,101035.53
2022-09-07T08:14:19.282Z,101036.80
2022-09-07T08:17:45.692Z,101043.82
2022-09-07T08:21:05.605Z,101037.92
2022-09-07T08:24:23.828Z,101044.75
2022-09-07T08:27:50.510Z,101038.99
2022-09-07T08:31:17.038Z,101042.09
2022-09-07T08:34:49.051Z,101045.27
2022-09-07T08:38:20.495Z,101039.61
2022-09-07T08:41:52.630Z,101033.27
2022-09-07T08:45:19.370Z,101041.75
2022-09-07T08:48:54.662Z,101050.42
2022-09-07T08:52:24.229Z,101062.04
2022-09-07T08:56:09.251Z,101053.52
2022-09-07T08:59:54.502Z,101050.23
2022-09-07T09:03:33.330Z,101052.06
2022-09-07T09:07:04.207Z,101063.21
2022-09-07T09:10:38.730Z,101063.51
2022-09-07T09:14:10.757Z,101068.43
2022-09-07T09:17:41.267Z,101066.84
2022-09-07T09:21:26.424Z,101069.45
2022-09-07T09:24:56.423Z,101071.95
2022-09-07T09:28:26.600Z,101070.73
2022-09-07T09:31:56.052Z,101069.55
2022-09-07T09:35:23.518Z,101067.98
2022-09-07T09:38:41.055Z,101063.60
2022-09-07T09:42:08.113Z,101067.65
2022-09-07T09:45:29.062Z,101079.05
2022-09-07T09:49:00.894Z,101085.95
2022-09-07T09:52:32.042Z,101096.34
2022-09-07T09:56:06.488Z,101096.14
2022-09-07T10:04:06.269Z,101107.98
2022-09-07T10:07:17.036Z,101109.31
2022-09-07T10:10:46.703Z,101111.60
2022-09-07T10:14:13.318Z,101105.08
2022-09-07T10:17:44.698Z,101103.36
2022-09-07T10:21:16.939Z,101116.81
2022-09-07T10:24:36.640Z,101110.33
2022-09-07T10:28:12.810Z,101126.34
2022-09-07T10:31:45.875Z,101148.20
2022-09-07T10:35:24.246Z,101154.64
2022-09-07T10:39:03.641Z,101135.64
2022-09-07T10:42:31.921Z,101088.32
2022-09-07T10:50:22.120Z,101133.02
2022-09-07T10:58:07.525Z,101179.63
2022-09-07T11:01:45.941Z,101195.81
2022-09-07T11:05:18.561Z,101164.67
2022-09-07T11:09:15.729Z,101187.27
2022-09-07T11:12:28.610Z,101167.86
2022-09-07T11:15:29.833Z,101160.64
2022-09-07T11:19:35.165Z,101161.46
2022-09-07T11:22:37.351Z,101144.02
2022-09-07T11:26:20.493Z,101182.76
2022-09-07T11:29:59.222Z,101191.63
2022-09-07T11:33:31.843Z,101214.66
2022-09-07T11:37:12.970Z,101227.33
2022-09-07T11:40:32.415Z,101223.95
2022-09-07T11:44:03.244Z,101212.78
2022-09-07T11:47:31.747Z,101197.50
2022-09-07T11:51:04.899Z,101169.14
2022-09-07T11:54:34.626Z,101179.38
2022-09-07T11:58:16.194Z,101222.70
2022-09-07T12:02:04.682Z,101236.20
2022-09-07T12:05:44.697Z,101240.63
2022-09-07T12:09:16.061Z,101231.21
2022-09-07T12:13:06.528Z,101251.34
2022-09-07T12:16:58.430Z,101262.91
2022-09-07T12:20:25.749Z,101243.42
2022-09-07T12:23:59.316Z,101242.02
2022-09-07T12:27:16.127Z,101245.02
2022-09-07T12:30:33.174Z,101242.56
2022-09-07T12:34:05.700Z,101252.45
2022-09-07T12:37:33.302Z,101255.02
2022-09-07T12:41:10.088Z,101260.85
2022-09-07T12:44:47.689Z,101267.45
2022-09-07T12:48:13.362Z,101257.30
2022-09-07T12:52:09.038Z,101234.42
2022-09-07T12:59:32.710Z,101231.02
2022-09-07T13:02:59.033Z,101247.23
2022-09-07T13:10:20.672Z,101285.65
2022-09-07T13:14:08.897Z,101319.17
2022-09-07T13:17:35.012Z,101320.98
2022-09-07T13:21:01.946Z,101314.72
2022-09-07T13:28:15.242Z,101297.93
2022-09-07T13:31:40.115Z,101307.11
2022-09-07T13:35:15.167Z,101307.17
2022-09-07T13:38:58.222Z,101289.52
2022-09-07T13:42:31.650Z,101296.48
2022-09-07T13:46:11.022Z,101298.60
2022-09-07T13:49:38.679Z,101288.30
2022-09-07T13:53:13.968Z,101269.88
2022-09-07T13:56:44.128Z,101263.95
2022-09-07T14:00:16.058Z,101271.30
2022-09-07T14:03:42.877Z,101272.51
2022-09-07T14:07:17.619Z,101291.38
2022-09-07T14:10:39.385Z,101297.90
2022-09-07T14:14:09.728Z,101307.19
2022-09-07T14:17:39.634Z,101323.90
2022-09-07T14:21:06.313Z,101330.71
2022-09-07T14:24:33.509Z,101316.85
2022-09-07T14:28:04.811Z,101308.45
2022-09-07T14:31:32.526Z,101302.66
2022-09-07T14:34:36.805Z,101305.97
2022-09-07T14:38:05.743Z,101323.24
2022-09-07T14:41:32.411Z,101346.67
2022-09-07T14:45:14.178Z,101365.08
2022-09-07T14:48:42.280Z,101374.50
2022-09-07T14:52:09.856Z,101380.38
2022-09-07T14:55:37.098Z,101380.20
2022-09-07T14:59:16.210Z,101395.53
2022-09-07T15:02:34.151Z,101422.30
2022-09-07T15:07:01.057Z,101419.41
2022-09-07T15:10:03.504Z,101433.37
2022-09-07T15:13:39.518Z,101423.70
2022-09-07T15:20:12.055Z,101434.56
2022-09-07T15:23:23.163Z,101438.38
2022-09-07T15:27:06.215Z,101438.47
2022-09-07T15:30:29.791Z,101441.68
2022-09-07T15:34:05.515Z,101452.05
2022-09-07T15:41:27.481Z,101448.34
2022-09-07T15:44:55.159Z,101459.39
2022-09-07T15:48:25.226Z,101472.35
2022-09-07T15:55:25.283Z,101487.89
2022-09-07T15:58:44.626Z,101495.41
2022-09-07T16:01:51.590Z,101491.80
2022-09-07T16:05:19.123Z,101494.05
2022-09-07T16:08:45.786Z,101500.20
2022-09-07T16:16:06.078Z,101499.92
2022-09-07T16:19:15.975Z,101502.20
2022-09-07T16:26:15.266Z,101509.58
2022-09-07T16:29:42.656Z,101505.92
2022-09-07T16:33:10.968Z,101512.25
2022-09-07T16:36:46.711Z,101510.20
2022-09-07T16:40:13.908Z,101509.55
2022-09-07T16:47:20.340Z,101514.35
2022-09-07T16:50:46.992Z,101514.71
2022-09-07T16:54:13.732Z,101523.86
2022-09-07T17:01:28.172Z,101545.97
2022-09-07T17:04:54.568Z,101548.66
2022-09-07T17:08:21.298Z,101551.52
2022-09-07T17:11:48.072Z,101548.83
2022-09-07T17:15:21.598Z,101554.50
2022-09-07T17:22:14.138Z,101562.41
2022-09-07T17:25:42.178Z,101556.31
2022-09-07T17:29:10.452Z,101559.59
2022-09-07T17:32:37.834Z,101561.24
2022-09-07T17:36:04.925Z,101566.04
2022-09-07T17:39:32.496Z,101562.19
2022-09-07T17:46:16.410Z,101561.27
2022-09-07T17:49:20.096Z,101558.34
2022-09-07T17:52:27.089Z,101562.27
2022-09-07T17:55:53.692Z,101564.67
2022-09-07T18:03:00.845Z,101571.39
2022-09-07T18:06:25.373Z,101572.45
2022-09-07T18:09:52.014Z,101575.60
2022-09-07T18:13:23.436Z,101574.20
2022-09-07T18:16:14.993Z,101564.80
2022-09-07T18:19:41.778Z,101562.43
2022-09-07T18:23:10.391Z,101562.13
2022-09-07T18:26:18.414Z,101574.52
2022-09-07T18:29:33.493Z,101576.28
2022-09-07T18:33:01.545Z,101584.88
2022-09-07T18:36:29.108Z,101584.86
2022-09-07T18:39:56.934Z,101587.20
2022-09-07T18:43:23.571Z,101587.39
2022-09-07T18:46:52.187Z,101588.14
2022-09-07T18:50:18.696Z,101574.98
2022-09-07T18:53:47.090Z,101576.73
2022-09-07T18:57:00.730Z,101575.64
2022-09-07T19:00:29.484Z,101559.48
2022-09-07T19:03:56.422Z,101539.10
2022-09-07T19:07:27.508Z,101540.27
2022-09-07T19:10:57.080Z,101543.09
2022-09-07T19:14:23.747Z,101545.14
2022-09-07T19:17:40.748Z,101546.85
2022-09-07T19:21:08.341Z,101550.38
2022-09-07T19:24:36.355Z,101537.38
2022-09-07T19:28:05.191Z,101529.38
2022-09-07T19:31:32.822Z,101528.06
2022-09-07T19:35:02.472Z,101526.66
2022-09-07T19:38:30.423Z,101520.92
2022-09-07T19:41:52.016Z,101522.14
2022-09-07T19:45:19.152Z,101518.16
2022-09-07T19:48:25.834Z,101517.92
2022-09-07T19:51:36.691Z,101511.77
2022-09-07T19:55:03.812Z,101513.11
2022-09-07T19:58:30.683Z,101515.41
2022-09-07T20:01:57.456Z,101516.10
2022-09-07T20:05:23.917Z,101515.27
2022-09-07T20:08:50.984Z,101505.39
2022-09-07T20:12:07.723Z,101512.96
2022-09-07T20:15:34.728Z,101511.12
2022-09-07T20:19:02.774Z,101505.13
2022-09-07T20:22:32.599Z,101505.33
2022-09-07T20:25:59.177Z,101506.61
2022-09-07T20:32:53.869Z,101497.46
2022-09-07T20:36:20.634Z,101493.66
2022-09-07T20:39:47.650Z,101497.51
2022-09-07T20:43:16.237Z,101512.55
2022-09-07T20:46:43.563Z,101517.77
2022-09-07T20:50:09.142Z,101516.30
2022-09-07T20:53:29.830Z,101507.34
2022-09-07T20:57:04.531Z,101507.55
2022-09-07T21:00:31.588Z,101496.49
2022-09-07T21:03:43.253Z,101486.46
2022-09-07T21:07:13.036Z,101496.52
2022-09-07T21:10:40.135Z,101503.55
2022-09-07T21:14:06.568Z,101504.00
2022-09-07T21:17:33.610Z,101502.83
2022-09-07T21:21:18.719Z,101507.55
2022-09-07T21:24:31.839Z,101506.93
2022-09-07T21:27:40.725Z,101503.77
2022-09-07T21:31:07.633Z,101501.09
2022-09-07T21:34:36.562Z,101495.80
2022-09-07T21:37:55.710Z,101497.98
2022-09-07T21:41:23.515Z,101489.71
2022-09-07T21:44:38.146Z,101488.98
2022-09-07T21:47:58.695Z,101487.34
2022-09-07T21:51:25.417Z,101494.46
2022-09-07T21:54:55.856Z,101489.08
2022-09-07T21:58:22.621Z,101495.61
2022-09-07T22:01:58.066Z,101497.83
2022-09-07T22:05:24.691Z,101509.71
2022-09-07T22:08:51.458Z,101508.90
2022-09-07T22:12:18.545Z,101508.42
2022-09-07T22:15:48.019Z,101500.69
2022-09-07T22:19:15.862Z,101498.90
2022-09-07T22:22:44.340Z,101498.88
2022-09-07T22:26:10.948Z,101497.46
2022-09-07T22:29:37.392Z,101496.89
2022-09-07T22:32:36.921Z,101497.05
2022-09-07T22:36:06.579Z,101493.58
2022-09-07T22:39:35.887Z,101491.19
2022-09-07T22:43:03.743Z,101484.22
2022-09-07T22:46:31.670Z,101485.63
2022-09-07T22:49:58.786Z,101489.02
2022-09-07T22:53:20.031Z,101492.84
2022-09-07T22:56:55.945Z,101497.34
2022-09-07T23:00:23.869Z,101501.48
2022-09-07T23:03:50.788Z,101499.02
2022-09-07T23:07:27.530Z,101495.31
2022-09-07T23:10:56.826Z,101492.59
2022-09-07T23:14:27.938Z,101496.04
2022-09-07T23:17:53.954Z,101494.80
2022-09-07T23:21:21.616Z,101499.81
2022-09-07T23:24:57.892Z,101508.79
2022-09-07T23:28:24.349Z,101506.13
2022-09-07T23:31:53.980Z,101505.06
2022-09-07T23:35:16.503Z,101515.30
2022-09-07T23:38:13.589Z,101517.29
2022-09-07T23:41:40.006Z,101518.65
2022-09-07T23:44:57.211Z,101520.77
2022-09-07T23:48:24.900Z,101522.80
2022-09-07T23:51:45.264Z,101519.63
2022-09-07T23:55:13.805Z,101520.46
2022-09-07T23:58:41.124Z,101521.70
